Search for airport 
image banner adimage banner adimage banner ad
image banner ad

74P - Calvada Meadows

Located in Pahrump, United States

ICAO - 74P, IATA -

Data provided by Airmate  

General information

Coordinates: N36°16'19" W115°59'43"
Elevation is 2726 feet MSL.
Magnetic variation is 14° East
View others Airports in Nevada

Operational data

Special qualification required
Current time UTC:
Current local time:
Weather at : KINS - Creech Afb ( 45 km )
METAR: KINS 130258Z AUTO 10009KT 10SM CLR 34/M14 A2984 RMK AO2 SLP054 T03371140 55002 $
TAF: TAF KINS 1214/1320 VRB06KT 9999 SKC QNH2991INS BECMG 1218/1219 09009KT 9999 SKC QNH2987INS BECMG 1220/1221 12010G15KT 9999 SKC QNH2981INS BECMG 1300/1301 22012G20KT 9999 SKC QNH2983INS WND 120V220 BECMG 1304/1305 22009KT 9999 SKC QNH2987INS BECMG 1306/1307 VRB06KT 9999 SKC QNH2989INS BECMG 1319/1320 24010G20KT 9999 SKC QNH2988INS TX37/1223Z TN18/1312Z
View NOTAMs / SUP AIP / TFR affecting this airport [VIEW]
Communications frequencies: [VIEW]

Runways:

RWY identifierQFULength (ft)Width (ft)SurfaceLDA (ft)
15164°408148OTHER
33344°408148OTHER

Airport contact information

Address: Pahrump United States

Satellite view of 74P